createdAt,value
2018-11-21T00:01:09.661Z,11.30
2018-11-21T00:03:41.194Z,11.67
2018-11-21T00:06:13.280Z,12.10
2018-11-21T00:08:45.417Z,11.13
2018-11-21T00:11:16.896Z,11.33
2018-11-21T00:13:48.910Z,12.20
2018-11-21T00:16:21.081Z,11.93
2018-11-21T00:18:52.630Z,12.50
2018-11-21T00:21:23.615Z,12.13
2018-11-21T00:23:53.938Z,12.53
2018-11-21T00:26:24.622Z,11.80
2018-11-21T00:28:55.715Z,12.63
2018-11-21T00:31:27.132Z,11.50
2018-11-21T00:33:58.649Z,12.00
2018-11-21T00:36:30.113Z,12.33
2018-11-21T00:39:01.497Z,12.20
2018-11-21T00:41:33.083Z,11.53
2018-11-21T00:44:20.438Z,11.00
2018-11-21T00:46:52.646Z,12.10
2018-11-21T00:49:24.391Z,12.90
2018-11-21T00:51:55.117Z,11.47
2018-11-21T00:54:26.541Z,12.60
2018-11-21T00:56:57.874Z,12.07
2018-11-21T00:59:29.771Z,11.73
2018-11-21T01:02:01.188Z,11.17
2018-11-21T01:04:31.783Z,11.73
2018-11-21T01:07:03.396Z,10.73
2018-11-21T01:09:35.913Z,11.27
2018-11-21T01:12:07.161Z,11.00
2018-11-21T01:14:38.156Z,10.60
2018-11-21T01:17:08.394Z,11.43
2018-11-21T01:19:38.674Z,11.20
2018-11-21T01:22:08.728Z,11.83
2018-11-21T01:24:40.106Z,12.30
2018-11-21T01:27:11.599Z,11.57
2018-11-21T01:29:42.965Z,12.13
2018-11-21T01:32:15.702Z,12.93
2018-11-21T01:34:46.112Z,12.33
2018-11-21T01:37:17.039Z,11.87
2018-11-21T01:39:48.477Z,11.73
2018-11-21T01:42:20.538Z,12.23
2018-11-21T01:44:50.159Z,12.73
2018-11-21T01:47:19.551Z,14.40
2018-11-21T01:49:49.260Z,14.10
2018-11-21T01:52:18.693Z,14.80
2018-11-21T01:54:49.889Z,11.83
2018-11-21T01:57:22.319Z,13.10
2018-11-21T01:59:54.247Z,12.97
2018-11-21T02:02:25.489Z,12.70
2018-11-21T02:04:57.030Z,12.23
2018-11-21T02:07:27.704Z,12.17
2018-11-21T02:09:58.798Z,12.03
2018-11-21T02:12:29.815Z,11.37
2018-11-21T02:15:01.882Z,11.43
2018-11-21T02:17:33.364Z,11.97
2018-11-21T02:20:02.971Z,11.43
2018-11-21T02:22:35.320Z,12.00
2018-11-21T02:25:05.465Z,11.17
2018-11-21T02:27:36.493Z,13.70
2018-11-21T02:30:08.238Z,11.47
2018-11-21T02:35:09.975Z,12.23
2018-11-21T02:37:41.555Z,12.80
2018-11-21T02:40:11.828Z,11.50
2018-11-21T02:42:43.371Z,12.10
2018-11-21T02:45:34.940Z,12.27
2018-11-21T02:48:05.816Z,10.07
2018-11-21T02:54:24.480Z,11.23
2018-11-21T02:57:32.842Z,11.07
2018-11-21T03:00:20.699Z,10.30
2018-11-21T03:02:52.065Z,10.50
2018-11-21T03:05:22.662Z,10.43
2018-11-21T03:07:58.277Z,10.37
2018-11-21T03:10:28.403Z,10.17
2018-11-21T03:12:58.995Z,10.60
2018-11-21T03:15:29.100Z,11.03
2018-11-21T03:17:59.120Z,10.03
2018-11-21T03:20:31.451Z,10.83
2018-11-21T03:23:03.211Z,11.20
2018-11-21T03:25:53.793Z,12.27
2018-11-21T03:28:25.398Z,13.40
2018-11-21T03:30:56.210Z,11.23
2018-11-21T03:33:28.578Z,13.30
2018-11-21T03:35:59.938Z,13.17
2018-11-21T03:38:29.296Z,12.77
2018-11-21T03:40:59.686Z,12.07
2018-11-21T03:43:30.261Z,12.30
2018-11-21T03:46:00.907Z,13.07
2018-11-21T03:48:31.823Z,12.33
2018-11-21T03:51:03.747Z,13.63
2018-11-21T03:53:35.076Z,12.23
2018-11-21T03:56:05.365Z,11.93
2018-11-21T03:58:38.459Z,13.63
2018-11-21T04:01:09.962Z,13.40
2018-11-21T04:03:40.694Z,13.00
2018-11-21T04:06:11.488Z,12.33
2018-11-21T04:08:42.599Z,13.33
2018-11-21T04:11:12.105Z,12.77
2018-11-21T04:13:43.699Z,13.20
2018-11-21T04:16:13.991Z,12.90
2018-11-21T04:18:44.681Z,13.50
2018-11-21T04:21:15.941Z,12.17
2018-11-21T04:23:47.142Z,12.00
2018-11-21T04:26:18.471Z,12.73
2018-11-21T04:29:07.592Z,12.00
2018-11-21T04:31:39.646Z,11.43
2018-11-21T04:34:10.329Z,11.43
2018-11-21T04:36:40.037Z,12.17
2018-11-21T04:39:11.769Z,11.50
2018-11-21T04:41:42.605Z,11.30
2018-11-21T04:44:13.342Z,11.47
2018-11-21T04:46:44.940Z,11.80
2018-11-21T04:49:15.439Z,12.20
2018-11-21T04:51:45.783Z,11.40
2018-11-21T04:54:16.219Z,11.83
2018-11-21T04:56:45.923Z,12.60
2018-11-21T04:59:55.131Z,11.13
2018-11-21T05:02:25.900Z,11.57
2018-11-21T05:04:59.182Z,12.30
2018-11-21T05:07:28.685Z,10.70
2018-11-21T05:10:00.982Z,11.10
2018-11-21T05:12:32.259Z,11.13
2018-11-21T05:15:10.215Z,10.70
2018-11-21T05:17:41.300Z,11.33
2018-11-21T05:20:11.961Z,10.67
2018-11-21T05:22:43.734Z,11.63
2018-11-21T05:25:17.959Z,12.47
2018-11-21T05:27:49.486Z,12.47
2018-11-21T05:30:19.990Z,11.20
2018-11-21T05:32:51.624Z,11.20
2018-11-21T05:35:24.041Z,11.97
2018-11-21T05:37:53.648Z,12.47
2018-11-21T05:40:24.490Z,11.27
2018-11-21T05:43:17.035Z,11.60
2018-11-21T05:45:48.633Z,12.63
2018-11-21T05:48:19.221Z,12.07
2018-11-21T05:50:48.966Z,11.87
2018-11-21T05:53:19.036Z,11.97
2018-11-21T05:55:50.803Z,12.70
2018-11-21T05:58:25.704Z,10.37
2018-11-21T06:00:57.140Z,12.37
2018-11-21T06:04:03.532Z,11.43
2018-11-21T06:06:34.869Z,11.97
2018-11-21T06:09:07.371Z,12.60
2018-11-21T06:11:38.211Z,11.90
2018-11-21T06:14:08.421Z,11.47
2018-11-21T06:16:49.760Z,12.03
2018-11-21T06:19:21.431Z,11.97
2018-11-21T06:22:07.427Z,11.60
2018-11-21T06:24:40.128Z,12.40
2018-11-21T06:27:09.761Z,11.50
2018-11-21T06:29:44.185Z,11.67
2018-11-21T06:32:16.022Z,12.50
2018-11-21T06:34:48.047Z,11.93
2018-11-21T06:37:20.014Z,11.93
2018-11-21T06:39:51.283Z,12.20
2018-11-21T06:42:23.258Z,12.40
2018-11-21T06:44:54.008Z,11.57
2018-11-21T06:47:40.059Z,11.50
2018-11-21T06:50:09.801Z,12.20
2018-11-21T06:52:40.780Z,11.83
2018-11-21T06:55:12.401Z,12.23
2018-11-21T06:57:43.400Z,12.30
2018-11-21T07:00:15.287Z,10.87
2018-11-21T07:02:45.249Z,11.53
2018-11-21T07:05:16.729Z,11.23
2018-11-21T07:07:46.817Z,11.77
2018-11-21T07:10:17.452Z,11.73
2018-11-21T07:12:47.794Z,12.80
2018-11-21T07:15:19.594Z,13.33
2018-11-21T07:17:50.227Z,17.63
2018-11-21T07:20:28.242Z,16.40
2018-11-21T07:23:00.108Z,15.13
2018-11-21T07:25:30.905Z,18.37
2018-11-21T07:28:03.286Z,15.63
2018-11-21T07:30:34.296Z,15.67
2018-11-21T07:33:05.222Z,12.77
2018-11-21T07:35:36.090Z,11.67
2018-11-21T07:38:06.165Z,12.03
2018-11-21T07:40:37.995Z,11.87
2018-11-21T07:43:07.754Z,12.30
2018-11-21T07:45:39.877Z,11.47
2018-11-21T07:48:11.336Z,10.93
2018-11-21T07:50:42.280Z,9.87
2018-11-21T07:53:14.769Z,10.13
2018-11-21T07:55:47.070Z,9.97
2018-11-21T07:58:19.134Z,11.00
2018-11-21T08:01:14.527Z,10.80
2018-11-21T08:04:07.557Z,10.97
2018-11-21T08:06:52.918Z,10.83
2018-11-21T08:09:44.369Z,10.50
2018-11-21T08:12:24.212Z,10.50
2018-11-21T08:15:19.447Z,10.67
2018-11-21T08:22:07.437Z,11.20
2018-11-21T08:24:56.886Z,10.70
2018-11-21T08:27:44.522Z,10.40
2018-11-21T08:30:14.805Z,9.83
2018-11-21T08:32:45.764Z,10.23
2018-11-21T08:35:17.732Z,10.17
2018-11-21T08:37:49.469Z,11.03
2018-11-21T08:40:19.208Z,10.63
2018-11-21T08:42:50.593Z,10.37
2018-11-21T08:45:21.646Z,10.60
2018-11-21T08:47:52.673Z,10.90
2018-11-21T08:50:23.663Z,10.73
2018-11-21T08:52:55.248Z,10.07
2018-11-21T08:55:26.573Z,10.57
2018-11-21T08:57:58.377Z,11.53
2018-11-21T09:00:29.916Z,10.53
2018-11-21T09:03:01.014Z,10.50
2018-11-21T09:05:30.541Z,10.93
2018-11-21T09:08:00.718Z,10.90
2018-11-21T09:13:02.100Z,10.73
2018-11-21T09:15:33.490Z,10.60
2018-11-21T09:18:06.448Z,10.63
2018-11-21T09:20:37.540Z,11.07
2018-11-21T09:23:08.557Z,11.23
2018-11-21T09:25:39.147Z,10.53
2018-11-21T09:28:09.278Z,10.90
2018-11-21T09:30:39.493Z,11.60
2018-11-21T09:33:11.959Z,11.77
2018-11-21T09:35:41.727Z,12.03
2018-11-21T09:38:11.557Z,11.03
2018-11-21T09:40:43.963Z,12.27
2018-11-21T09:43:16.363Z,11.03
2018-11-21T09:45:48.050Z,10.87
2018-11-21T09:48:18.986Z,11.13
2018-11-21T09:50:50.743Z,11.13
2018-11-21T09:53:22.788Z,11.70
2018-11-21T09:55:53.020Z,11.00
2018-11-21T09:58:23.210Z,11.33
2018-11-21T10:01:48.503Z,11.47
2018-11-21T10:04:19.737Z,11.73
2018-11-21T10:06:50.713Z,11.67
2018-11-21T10:09:24.566Z,11.23
2018-11-21T10:11:55.952Z,11.77
2018-11-21T10:14:26.810Z,11.27
2018-11-21T10:16:58.687Z,11.57
2018-11-21T10:19:30.236Z,11.37
2018-11-21T10:22:01.376Z,12.83
2018-11-21T10:24:32.331Z,12.00
2018-11-21T10:27:02.793Z,11.43
2018-11-21T10:29:59.038Z,11.50
2018-11-21T10:32:29.425Z,11.27
2018-11-21T10:35:00.732Z,11.23
2018-11-21T10:37:30.893Z,11.57
2018-11-21T10:40:01.775Z,11.13
2018-11-21T10:42:34.713Z,10.47
2018-11-21T10:45:07.264Z,10.93
2018-11-21T10:47:37.757Z,11.10
2018-11-21T10:50:09.579Z,10.70
2018-11-21T10:52:40.214Z,11.53
2018-11-21T10:55:10.036Z,11.30
2018-11-21T10:57:58.407Z,11.37
2018-11-21T11:00:47.366Z,11.93
2018-11-21T11:03:21.937Z,12.03
2018-11-21T11:06:04.710Z,11.20
2018-11-21T11:08:53.155Z,12.13
2018-11-21T11:11:57.781Z,11.37
2018-11-21T11:14:57.189Z,11.57
2018-11-21T11:18:01.835Z,11.37
2018-11-21T11:20:52.916Z,11.67
2018-11-21T11:23:48.364Z,11.50
2018-11-21T11:26:36.216Z,11.87
2018-11-21T11:29:37.769Z,10.63
2018-11-21T11:32:15.713Z,10.77
2018-11-21T11:35:34.225Z,11.50
2018-11-21T11:38:23.494Z,11.43
2018-11-21T11:41:29.213Z,9.97
2018-11-21T11:44:24.822Z,10.13
2018-11-21T11:47:22.341Z,10.57
2018-11-21T11:50:08.545Z,9.87
2018-11-21T11:52:56.013Z,10.97
2018-11-21T11:55:41.949Z,11.53
2018-11-21T11:58:42.127Z,11.43
2018-11-21T12:01:31.863Z,11.57
2018-11-21T12:04:20.322Z,10.30
2018-11-21T12:07:25.419Z,11.23
2018-11-21T12:10:14.455Z,9.93
2018-11-21T12:13:05.707Z,10.30
2018-11-21T12:16:02.796Z,10.47
2018-11-21T12:18:57.777Z,11.03
2018-11-21T12:21:53.293Z,10.17
2018-11-21T12:24:49.772Z,10.67
2018-11-21T12:27:39.464Z,10.47
2018-11-21T12:30:29.201Z,10.53
2018-11-21T12:33:17.605Z,11.00
2018-11-21T12:36:04.416Z,11.47
2018-11-21T12:38:53.248Z,10.30
2018-11-21T12:41:45.670Z,11.93
2018-11-21T12:44:38.758Z,10.37
2018-11-21T12:47:28.939Z,11.00
2018-11-21T12:50:14.700Z,11.03
2018-11-21T12:53:05.401Z,11.27
2018-11-21T12:55:53.874Z,10.87
2018-11-21T12:58:56.145Z,11.33
2018-11-21T13:01:35.273Z,12.53
2018-11-21T13:04:27.110Z,10.43
2018-11-21T13:07:28.045Z,11.37
2018-11-21T13:10:27.122Z,10.67
2018-11-21T13:13:15.646Z,10.57
2018-11-21T13:16:31.688Z,10.17
2018-11-21T13:19:24.584Z,10.30
2018-11-21T13:22:15.965Z,9.60
2018-11-21T13:25:09.137Z,10.70
2018-11-21T13:27:57.524Z,10.00
2018-11-21T13:31:12.135Z,10.93
2018-11-21T13:34:00.384Z,10.40
2018-11-21T13:37:00.627Z,9.97
2018-11-21T13:39:47.922Z,10.03
2018-11-21T13:42:54.823Z,10.43
2018-11-21T13:45:42.641Z,11.13
2018-11-21T13:48:26.897Z,10.80
2018-11-21T13:51:27.101Z,11.23
2018-11-21T13:54:15.143Z,10.90
2018-11-21T13:57:02.142Z,10.50
2018-11-21T13:59:38.822Z,12.13
2018-11-21T14:02:09.468Z,11.03
2018-11-21T14:04:57.840Z,11.53
2018-11-21T14:07:34.694Z,11.90
2018-11-21T14:10:35.830Z,12.13
2018-11-21T14:13:06.186Z,11.73
2018-11-21T14:15:36.102Z,11.77
2018-11-21T14:18:06.408Z,10.60
2018-11-21T14:20:45.154Z,11.37
2018-11-21T14:23:16.690Z,11.33
2018-11-21T14:25:47.094Z,12.10
2018-11-21T14:28:20.191Z,10.80
2018-11-21T14:30:50.406Z,11.20
2018-11-21T14:33:21.149Z,10.77
2018-11-21T14:35:56.020Z,10.20
2018-11-21T14:38:33.716Z,11.17
2018-11-21T14:41:05.457Z,10.00
2018-11-21T14:43:36.331Z,10.20
2018-11-21T14:46:16.411Z,11.07
2018-11-21T14:48:47.477Z,10.47
2018-11-21T14:51:17.279Z,11.13
2018-11-21T14:53:50.411Z,11.77
2018-11-21T14:56:43.630Z,11.57
2018-11-21T14:59:14.692Z,11.67
2018-11-21T15:01:46.263Z,10.57
2018-11-21T15:04:18.885Z,11.03
2018-11-21T15:06:49.669Z,10.50
2018-11-21T15:09:19.379Z,10.70
2018-11-21T15:11:49.470Z,11.60
2018-11-21T15:14:23.512Z,10.50
2018-11-21T15:16:54.863Z,11.30
2018-11-21T15:19:25.459Z,11.00
2018-11-21T15:21:55.914Z,10.73
2018-11-21T15:24:27.503Z,11.87
2018-11-21T15:27:06.758Z,10.60
2018-11-21T15:29:48.247Z,11.67
2018-11-21T15:32:18.127Z,12.37
2018-11-21T15:34:48.698Z,11.73
2018-11-21T15:37:21.595Z,11.10
2018-11-21T15:39:54.266Z,11.17
2018-11-21T15:42:27.623Z,10.37
2018-11-21T15:45:04.012Z,11.63
2018-11-21T15:47:46.210Z,11.03
2018-11-21T15:50:16.887Z,11.63
2018-11-21T15:52:53.046Z,11.27
2018-11-21T15:55:26.452Z,11.60
2018-11-21T15:58:24.901Z,11.83
2018-11-21T16:01:03.365Z,12.73
2018-11-21T16:03:34.592Z,11.77
2018-11-21T16:06:04.679Z,13.23
2018-11-21T16:08:35.701Z,13.83
2018-11-21T16:11:05.588Z,13.00
2018-11-21T16:13:37.133Z,12.60
2018-11-21T16:16:07.905Z,12.63
2018-11-21T16:18:39.965Z,12.00
2018-11-21T16:21:11.781Z,12.07
2018-11-21T16:23:43.975Z,12.03
2018-11-21T16:26:13.448Z,12.10
2018-11-21T16:28:45.024Z,11.20
2018-11-21T16:31:16.871Z,11.57
2018-11-21T16:33:47.929Z,12.33
2018-11-21T16:36:18.009Z,12.57
2018-11-21T16:38:49.194Z,12.77
2018-11-21T16:41:19.552Z,13.77
2018-11-21T16:43:50.294Z,12.63
2018-11-21T16:46:20.917Z,12.47
2018-11-21T16:48:51.369Z,11.27
2018-11-21T16:51:20.677Z,12.13
2018-11-21T16:53:51.370Z,11.93
2018-11-21T16:56:25.213Z,11.63
2018-11-21T16:58:55.840Z,10.63
2018-11-21T17:01:26.927Z,11.43
2018-11-21T17:03:57.101Z,12.30
2018-11-21T17:06:28.436Z,12.13
2018-11-21T17:08:58.883Z,10.93
2018-11-21T17:11:30.641Z,11.70
2018-11-21T17:14:09.773Z,12.33
2018-11-21T17:16:48.260Z,11.10
2018-11-21T17:19:18.278Z,11.63
2018-11-21T17:21:49.066Z,11.80
2018-11-21T17:24:20.349Z,11.70
2018-11-21T17:26:51.588Z,11.97
2018-11-21T17:29:35.684Z,10.47
2018-11-21T17:32:05.669Z,10.90
2018-11-21T17:34:38.741Z,11.03
2018-11-21T17:37:29.758Z,10.87
2018-11-21T17:40:00.800Z,9.37
2018-11-21T17:42:34.561Z,10.53
2018-11-21T17:45:05.576Z,9.70
2018-11-21T17:47:36.079Z,10.33
2018-11-21T17:50:08.507Z,11.20
2018-11-21T17:52:49.480Z,10.67
2018-11-21T17:55:20.683Z,10.90
2018-11-21T17:57:53.510Z,10.37
2018-11-21T18:00:24.899Z,12.33
2018-11-21T18:02:57.158Z,12.00
2018-11-21T18:05:29.546Z,12.20
2018-11-21T18:08:07.311Z,10.40
2018-11-21T18:10:40.231Z,10.57
2018-11-21T18:13:12.851Z,10.40
2018-11-21T18:15:43.809Z,10.80
2018-11-21T18:18:31.016Z,11.00
2018-11-21T18:21:02.005Z,11.33
2018-11-21T18:23:45.322Z,11.43
2018-11-21T18:26:20.578Z,12.27
2018-11-21T18:28:51.216Z,10.93
2018-11-21T18:31:24.107Z,10.83
2018-11-21T18:33:56.988Z,11.23
2018-11-21T18:36:46.319Z,10.50
2018-11-21T18:39:18.183Z,9.90
2018-11-21T18:41:49.930Z,12.03
2018-11-21T18:44:30.994Z,11.70
2018-11-21T18:47:02.598Z,10.60
2018-11-21T18:50:00.074Z,10.50
2018-11-21T18:52:34.565Z,10.87
2018-11-21T18:55:07.867Z,12.17
2018-11-21T18:58:16.047Z,10.80
2018-11-21T19:00:50.093Z,11.90
2018-11-21T19:03:20.209Z,11.20
2018-11-21T19:05:51.773Z,10.93
2018-11-21T19:08:21.393Z,11.43
2018-11-21T19:11:09.241Z,11.60
2018-11-21T19:13:39.751Z,12.03
2018-11-21T19:16:10.155Z,12.00
2018-11-21T19:18:40.775Z,11.40
2018-11-21T19:21:13.674Z,13.47
2018-11-21T19:23:46.345Z,10.00
2018-11-21T19:26:40.841Z,11.67
2018-11-21T19:29:14.324Z,10.67
2018-11-21T19:32:03.324Z,11.27
2018-11-21T19:34:33.483Z,11.60
2018-11-21T19:37:04.987Z,11.57
2018-11-21T19:39:35.517Z,10.63
2018-11-21T19:42:06.114Z,11.30
2018-11-21T19:44:38.681Z,10.80
2018-11-21T19:47:24.607Z,11.40
2018-11-21T19:49:55.305Z,12.13
2018-11-21T19:52:35.099Z,10.97
2018-11-21T19:55:13.420Z,10.60
2018-11-21T19:57:43.431Z,11.30
2018-11-21T20:00:27.825Z,11.60
2018-11-21T20:02:58.749Z,11.13
2018-11-21T20:05:28.996Z,11.23
2018-11-21T20:08:01.062Z,10.27
2018-11-21T20:10:36.568Z,11.67
2018-11-21T20:13:07.423Z,11.90
2018-11-21T20:15:39.180Z,10.30
2018-11-21T20:18:09.118Z,11.77
2018-11-21T20:20:39.363Z,12.07
2018-11-21T20:23:09.490Z,11.50
2018-11-21T20:25:46.567Z,12.00
2018-11-21T20:28:21.564Z,11.23
2018-11-21T20:30:52.216Z,10.93
2018-11-21T20:33:24.397Z,11.03
2018-11-21T20:35:55.151Z,11.10
2018-11-21T20:38:39.774Z,11.67
2018-11-21T20:41:32.339Z,12.03
2018-11-21T20:44:15.405Z,12.37
2018-11-21T20:46:50.219Z,12.50
2018-11-21T20:49:24.377Z,12.37
2018-11-21T20:51:56.700Z,12.20
2018-11-21T20:54:28.175Z,11.20
2018-11-21T20:56:59.740Z,11.80
2018-11-21T20:59:30.600Z,13.00
2018-11-21T21:02:01.840Z,12.67
2018-11-21T21:04:32.080Z,11.43
2018-11-21T21:07:02.455Z,10.47
2018-11-21T21:09:34.057Z,13.07
2018-11-21T21:12:05.611Z,11.13
2018-11-21T21:14:37.072Z,12.50
2018-11-21T21:17:33.625Z,11.80
2018-11-21T21:20:04.138Z,12.13
2018-11-21T21:22:45.372Z,10.57
2018-11-21T21:25:17.516Z,11.43
2018-11-21T21:27:48.401Z,12.83
2018-11-21T21:30:20.875Z,13.00
2018-11-21T21:32:50.750Z,12.57
2018-11-21T21:35:22.451Z,12.43
2018-11-21T21:37:53.002Z,12.57
2018-11-21T21:40:23.965Z,10.77
2018-11-21T21:43:10.322Z,11.80
2018-11-21T21:45:43.109Z,11.27
2018-11-21T21:48:16.275Z,13.23
